Blanchard Township, Maine
Current Conditions -  °F | °C
As of 4:53 PM on Saturday 25 Oct 2014 (Local Time) from KMLT Reporting Station
Clear Clear  
Wind Chill: 11°   Ceiling: Unl
Heat Index: 11°   Visibility: 10mi
Dew Point:   Wind: 5mph
Humidity: 59%   Direction: 100°E
Pressure: 29.55"   Gusts: NA
Location:  45.3122°N, 69.5439°W
Report Text: KMLT 252053Z AUTO 10004KT 10SM CLR 11/03 A2955 RMK AO2 SLP012 T01060028 56010
Loading
Personal Weather Stations






























Interactive Weather Map
Tropical Storm Tracking
New forecast layout! Learn more

10-Day Weather Forecast

Advertisements
Track Severe Weather on mobile